Impacts METAR Board
IDs:

KDCA - Washington/National, VA, US

Updated at: 2300 UTC 19 Jul 2018
Potential Impact None Slight Moderate High
Time 19/11Z 19/12Z 19/13Z 19/14Z 19/15Z 19/16Z 19/17Z 19/18Z 19/19Z 19/20Z 19/21Z 19/22Z 19/23Z
Temp73 75 77 79 82 84 84 85 86 87 87 86 84
Dewpt58 56 56 55 55 56 56 55 54 54 53 56 58
Altim30.07 30.09 30.11 30.11 30.11 30.11 30.10 30.09 30.08 30.07 30.06 30.05 30.05
VIS10 10 10 10 10 10 10 10 10 10 10 10 10
CIG-- -- -- -- -- -- 250 250 250 250 250 250 250
CoverFEWFEWFEWFEWSCTSCTBKNBKNBKNBKNBKNBKNBKN
FltCatVFRVFRVFRVFRVFRVFRVFRVFRVFRVFRVFRVFRVFR
WX--------------------------
WDir401050505010180140150170170180150
WSpd7 7 9 7 5 4 4 4 4 5 6 7 12
WGst-- -- -- -- -- -- -- -- -- -- -- -- --
Raw hourly METARs
KDCA 191052Z 04007KT 10SM FEW065 FEW080 23/14 A3007 RMK AO2 SLP182 T02280144
KDCA 191152Z 01007KT 10SM FEW065 FEW080 24/13 A3009 RMK AO2 SLP188 T02390133 10239 20217 53014
KDCA 191252Z 05009KT 10SM FEW045 FEW080 25/13 A3011 RMK AO2 SLP195 T02500133
KDCA 191352Z 05007KT 10SM FEW045 FEW090 FEW250 26/13 A3011 RMK AO2 SLP196 T02610128
KDCA 191452Z 05005KT 10SM FEW045 SCT250 28/13 A3011 RMK AO2 SLP197 T02780128 51009
KDCA 191552Z 01004KT 10SM FEW080 SCT250 29/13 A3011 RMK AO2 SLP197 T02890133
KDCA 191652Z 18004KT 10SM SCT050 BKN250 29/13 A3010 RMK AO2 SLP194 T02890133
KDCA 191752Z 14004KT 10SM SCT060 BKN250 29/13 A3009 RMK AO2 SLP188 T02940128 10306 20233 58009
KDCA 191852Z 15004KT 10SM SCT065 BKN250 30/12 A3008 RMK AO2 SLP184 T03000122
KDCA 191952Z 17005KT 10SM FEW065 BKN250 31/12 A3007 RMK AO2 SLP181 T03060122
KDCA 192052Z 17006KT 10SM SCT065 BKN250 31/12 A3006 RMK AO2 SLP179 T03060117 56009
KDCA 192152Z 18007KT 10SM FEW065 BKN250 30/13 A3005 RMK AO2 SLP175 T03000133
KDCA 192252Z 15012KT 10SM FEW065 BKN250 29/14 A3005 RMK AO2 SLP175 T02890144



Page loaded:  23:05 UTC  |   04:05 PM Pacific  |   05:05 PM Mountain  |   06:05 PM Central  |   07:05 PM Eastern

 

ADVISORIES

FORECASTS

FORECASTS

OBSERVATIONS

USER TOOLS

ABOUT US